createdAt,value
2023-03-23T15:58:13.595Z,100321.47
2023-03-23T16:00:59.346Z,100272.06
2023-03-23T16:03:45.116Z,100296.97
2023-03-23T16:06:32.035Z,100296.25
2023-03-23T16:09:17.670Z,100315.22
2023-03-23T16:12:01.764Z,100285.03
2023-03-23T16:14:47.124Z,100317.56
2023-03-23T16:17:31.141Z,100295.06
2023-03-23T16:20:16.966Z,100310.06
2023-03-23T16:23:01.542Z,100318.06
2023-03-23T16:25:45.686Z,100251.66
2023-03-23T16:28:29.650Z,100321.38
2023-03-23T16:31:15.146Z,100328.47
2023-03-23T16:33:59.058Z,100294.91
2023-03-23T16:36:43.081Z,100251.38
2023-03-23T16:39:27.051Z,100325.34
2023-03-23T16:42:11.273Z,100288.88
2023-03-23T16:44:55.244Z,100289.13
2023-03-23T16:47:41.144Z,100325.28
2023-03-23T16:50:25.191Z,100327.28
2023-03-23T16:53:10.374Z,100292.19
2023-03-23T16:55:54.766Z,100298.16
2023-03-23T16:58:42.787Z,100242.97
2023-03-23T17:01:26.684Z,100292.34
2023-03-23T17:04:12.189Z,100288.94
2023-03-23T17:06:56.415Z,100329.47
2023-03-23T17:09:42.643Z,100296.91
2023-03-23T17:12:27.372Z,100295.13
2023-03-23T17:15:12.782Z,100331.03
2023-03-23T17:17:56.752Z,100354.22
2023-03-23T17:20:43.624Z,100325.28
2023-03-23T17:23:27.799Z,100307.41
2023-03-23T17:26:11.790Z,100292.03
2023-03-23T17:28:55.858Z,100289.78
2023-03-23T17:31:41.401Z,100287.50
2023-03-23T17:34:25.605Z,100305.94
2023-03-23T17:37:11.812Z,100307.53
2023-03-23T17:39:55.696Z,100303.41
2023-03-23T17:42:39.903Z,100350.94
2023-03-23T17:45:24.024Z,100358.22
2023-03-23T17:48:08.736Z,100339.84
2023-03-23T17:50:57.737Z,100323.06
2023-03-23T17:53:43.377Z,100329.13
2023-03-23T17:56:27.544Z,100334.16
2023-03-23T17:59:12.517Z,100331.19
2023-03-23T18:01:56.800Z,100342.56
2023-03-23T18:04:41.012Z,100290.63
2023-03-23T18:07:25.057Z,100356.63
2023-03-23T18:10:13.144Z,100356.19
2023-03-23T18:12:57.415Z,100370.84
2023-03-23T18:15:46.926Z,100330.47
2023-03-23T18:18:31.487Z,100387.72
2023-03-23T18:21:15.582Z,100377.50
2023-03-23T18:24:00.250Z,100390.00
2023-03-23T18:26:45.841Z,100383.75
2023-03-23T18:29:29.923Z,100367.38
2023-03-23T18:32:14.090Z,100388.53
2023-03-23T18:34:58.297Z,100355.72
2023-03-23T18:37:43.706Z,100381.28
2023-03-23T18:40:27.833Z,100389.63
2023-03-23T18:43:14.131Z,100373.34
2023-03-23T18:46:00.036Z,100354.22
2023-03-23T18:48:44.319Z,100342.59
2023-03-23T18:51:28.511Z,100356.22
2023-03-23T18:54:13.578Z,100350.94
2023-03-23T18:57:00.230Z,100382.44
2023-03-23T18:59:46.481Z,100398.78
2023-03-23T19:02:30.519Z,100397.78
2023-03-23T19:05:14.551Z,100339.53
2023-03-23T19:07:58.593Z,100391.94
2023-03-23T19:10:44.346Z,100376.97
2023-03-23T19:13:29.063Z,100393.84
2023-03-23T19:16:14.956Z,100402.19
2023-03-23T19:18:59.104Z,100355.22
2023-03-23T19:21:46.907Z,100398.19
2023-03-23T19:24:31.432Z,100361.94
2023-03-23T19:27:15.554Z,100350.41
2023-03-23T19:30:00.737Z,100352.38
2023-03-23T19:32:46.761Z,100393.13
2023-03-23T19:35:32.268Z,100351.53
2023-03-23T19:38:16.190Z,100385.00
2023-03-23T19:41:03.843Z,100349.53
2023-03-23T19:43:49.506Z,100400.25
2023-03-23T19:46:33.621Z,100360.72
2023-03-23T19:49:19.883Z,100378.97
2023-03-23T19:52:06.466Z,100404.53
2023-03-23T19:54:54.936Z,100401.44
2023-03-23T19:57:39.647Z,100374.75
2023-03-23T20:00:25.023Z,100378.09
2023-03-23T20:03:09.689Z,100399.13
2023-03-23T20:06:01.536Z,100414.50
2023-03-23T20:08:47.900Z,100416.78
2023-03-23T20:11:32.337Z,100409.03
2023-03-23T20:14:17.769Z,100420.81
2023-03-23T20:17:01.979Z,100419.75
2023-03-23T20:19:46.217Z,100392.06
2023-03-23T20:22:31.713Z,100387.69
2023-03-23T20:25:15.802Z,100395.66
2023-03-23T20:28:00.371Z,100421.69
2023-03-23T20:30:44.614Z,100398.69
2023-03-23T20:33:30.720Z,100398.22
2023-03-23T20:36:15.096Z,100385.00
2023-03-23T20:39:01.378Z,100424.69
2023-03-23T20:41:47.801Z,100392.53
2023-03-23T20:44:35.200Z,100387.16
2023-03-23T20:47:19.383Z,100428.88
2023-03-23T20:50:05.386Z,100431.38
2023-03-23T20:52:50.118Z,100416.72
2023-03-23T20:55:35.588Z,100386.34
2023-03-23T20:58:21.319Z,100423.56
2023-03-23T21:01:07.162Z,100419.91
2023-03-23T21:03:54.280Z,100423.94
2023-03-23T21:06:38.387Z,100386.66
2023-03-23T21:09:23.201Z,100390.88
2023-03-23T21:12:09.702Z,100381.00
2023-03-23T21:14:53.616Z,100417.75
2023-03-23T21:17:37.558Z,100418.19
2023-03-23T21:20:21.691Z,100379.00
2023-03-23T21:23:06.387Z,100374.59
2023-03-23T21:25:51.053Z,100374.34
2023-03-23T21:28:36.933Z,100400.06
2023-03-23T21:31:23.430Z,100415.13
2023-03-23T21:34:07.559Z,100367.47
2023-03-23T21:36:51.601Z,100365.91
2023-03-23T21:39:35.763Z,100388.84
2023-03-23T21:42:19.805Z,100321.28
2023-03-23T21:45:06.205Z,100396.19
2023-03-23T21:47:57.220Z,100386.34
2023-03-23T21:50:42.984Z,100353.63
2023-03-23T21:53:28.192Z,100354.47
2023-03-23T21:56:13.020Z,100370.88
2023-03-23T21:58:57.890Z,100346.22
2023-03-23T22:01:43.325Z,100367.56
2023-03-23T22:04:28.142Z,100381.97
2023-03-23T22:07:13.794Z,100374.53
2023-03-23T22:09:57.917Z,100329.78
2023-03-23T22:12:42.608Z,100301.03
2023-03-23T22:15:28.252Z,100348.31
2023-03-23T22:18:13.867Z,100381.66
2023-03-23T22:20:59.176Z,100336.69
2023-03-23T22:23:43.930Z,100340.44
2023-03-23T22:26:29.572Z,100326.59
2023-03-23T22:29:16.989Z,100348.31
2023-03-23T22:32:01.207Z,100365.63
2023-03-23T22:34:47.467Z,100389.72
2023-03-23T22:37:31.743Z,100387.84
2023-03-23T22:40:15.911Z,100380.88
2023-03-23T22:43:00.114Z,100386.97
2023-03-23T22:45:44.212Z,100338.00
2023-03-23T22:48:29.277Z,100383.97
2023-03-23T22:51:16.539Z,100381.16
2023-03-23T22:54:00.757Z,100340.00
2023-03-23T22:56:44.766Z,100357.78
2023-03-23T22:59:28.865Z,100365.81
2023-03-23T23:02:12.871Z,100317.81
2023-03-23T23:04:57.952Z,100380.22
2023-03-23T23:07:43.294Z,100380.75
2023-03-23T23:10:27.450Z,100338.00
2023-03-23T23:13:13.200Z,100365.53
2023-03-23T23:15:59.085Z,100378.63
2023-03-23T23:18:43.249Z,100339.53
2023-03-23T23:21:29.220Z,100379.84
2023-03-23T23:24:14.898Z,100367.72
2023-03-23T23:26:59.166Z,100368.53
2023-03-23T23:29:43.292Z,100330.88
2023-03-23T23:32:29.253Z,100368.19
2023-03-23T23:35:14.423Z,100353.19
2023-03-23T23:37:58.523Z,100368.44
2023-03-23T23:40:46.269Z,100371.44
2023-03-23T23:43:30.605Z,100368.44
2023-03-23T23:46:14.735Z,100366.38
2023-03-23T23:48:59.261Z,100365.91
2023-03-23T23:51:44.820Z,100365.09
2023-03-23T23:54:30.951Z,100358.34
2023-03-23T23:57:16.929Z,100305.16
